sensor_id;sensor_type;location;lat;lon;timestamp;P1;durP1;ratioP1;P2;durP2;ratioP2
55647;SDS011;45266;48.756;9.246;2023-05-24T00:00:55;5.13;;;2.65;;
55647;SDS011;45266;48.756;9.246;2023-05-24T00:01:57;3.30;;;2.75;;
55647;SDS011;45266;48.756;9.246;2023-05-24T00:02:59;4.18;;;2.88;;
55647;SDS011;45266;48.756;9.246;2023-05-24T00:04:03;7.18;;;3.30;;
55647;SDS011;45266;48.756;9.246;2023-05-24T00:05:05;4.20;;;3.30;;
55647;SDS011;45266;48.756;9.246;2023-05-24T00:06:11;3.88;;;2.67;;
55647;SDS011;45266;48.756;9.246;2023-05-24T00:07:13;4.25;;;3.20;;
55647;SDS011;45266;48.756;9.246;2023-05-24T00:08:16;3.58;;;3.25;;
55647;SDS011;45266;48.756;9.246;2023-05-24T00:09:18;4.50;;;2.83;;
55647;SDS011;45266;48.756;9.246;2023-05-24T00:10:21;6.00;;;3.00;;
55647;SDS011;45266;48.756;9.246;2023-05-24T00:11:23;5.95;;;3.00;;
55647;SDS011;45266;48.756;9.246;2023-05-24T00:12:25;3.13;;;2.83;;
55647;SDS011;45266;48.756;9.246;2023-05-24T00:13:27;4.57;;;3.28;;
55647;SDS011;45266;48.756;9.246;2023-05-24T00:14:28;4.28;;;3.17;;
55647;SDS011;45266;48.756;9.246;2023-05-24T00:15:30;4.80;;;3.13;;
55647;SDS011;45266;48.756;9.246;2023-05-24T00:16:32;6.68;;;3.40;;
55647;SDS011;45266;48.756;9.246;2023-05-24T00:17:35;4.88;;;3.00;;
55647;SDS011;45266;48.756;9.246;2023-05-24T00:18:41;4.25;;;3.40;;
55647;SDS011;45266;48.756;9.246;2023-05-24T00:19:47;3.88;;;2.97;;
55647;SDS011;45266;48.756;9.246;2023-05-24T00:20:49;3.22;;;2.90;;
55647;SDS011;45266;48.756;9.246;2023-05-24T00:21:52;5.63;;;3.00;;
55647;SDS011;45266;48.756;9.246;2023-05-24T00:22:54;3.28;;;2.78;;
55647;SDS011;45266;48.756;9.246;2023-05-24T00:23:56;4.32;;;3.17;;
55647;SDS011;45266;48.756;9.246;2023-05-24T00:24:58;5.88;;;3.35;;
55647;SDS011;45266;48.756;9.246;2023-05-24T00:26:00;4.38;;;3.03;;
55647;SDS011;45266;48.756;9.246;2023-05-24T00:27:04;5.15;;;3.30;;
55647;SDS011;45266;48.756;9.246;2023-05-24T00:28:06;3.63;;;3.03;;
55647;SDS011;45266;48.756;9.246;2023-05-24T00:29:08;5.68;;;3.45;;
55647;SDS011;45266;48.756;9.246;2023-05-24T00:30:11;4.30;;;2.88;;
55647;SDS011;45266;48.756;9.246;2023-05-24T00:31:13;4.10;;;3.30;;
55647;SDS011;45266;48.756;9.246;2023-05-24T00:32:15;5.85;;;3.38;;
55647;SDS011;45266;48.756;9.246;2023-05-24T00:33:17;4.70;;;3.15;;
55647;SDS011;45266;48.756;9.246;2023-05-24T00:34:19;5.18;;;3.15;;
55647;SDS011;45266;48.756;9.246;2023-05-24T00:35:21;5.13;;;2.80;;
55647;SDS011;45266;48.756;9.246;2023-05-24T00:36:23;7.28;;;3.47;;
55647;SDS011;45266;48.756;9.246;2023-05-24T00:37:25;6.10;;;3.00;;
55647;SDS011;45266;48.756;9.246;2023-05-24T00:38:27;5.10;;;3.20;;
55647;SDS011;45266;48.756;9.246;2023-05-24T00:39:29;4.55;;;3.15;;
55647;SDS011;45266;48.756;9.246;2023-05-24T00:40:31;4.43;;;3.05;;
55647;SDS011;45266;48.756;9.246;2023-05-24T00:41:33;4.85;;;2.80;;
55647;SDS011;45266;48.756;9.246;2023-05-24T00:42:35;6.00;;;3.17;;
55647;SDS011;45266;48.756;9.246;2023-05-24T00:43:37;4.72;;;3.10;;
55647;SDS011;45266;48.756;9.246;2023-05-24T00:44:39;9.75;;;3.15;;
55647;SDS011;45266;48.756;9.246;2023-05-24T00:45:41;5.95;;;2.88;;
55647;SDS011;45266;48.756;9.246;2023-05-24T00:46:43;6.85;;;3.17;;
55647;SDS011;45266;48.756;9.246;2023-05-24T00:47:45;5.35;;;3.00;;
55647;SDS011;45266;48.756;9.246;2023-05-24T00:48:48;7.68;;;3.10;;
55647;SDS011;45266;48.756;9.246;2023-05-24T00:49:50;5.57;;;2.65;;
55647;SDS011;45266;48.756;9.246;2023-05-24T00:50:52;6.55;;;3.38;;
55647;SDS011;45266;48.756;9.246;2023-05-24T00:51:54;4.43;;;3.05;;
55647;SDS011;45266;48.756;9.246;2023-05-24T00:52:56;6.53;;;3.10;;
55647;SDS011;45266;48.756;9.246;2023-05-24T00:54:02;5.68;;;3.55;;
55647;SDS011;45266;48.756;9.246;2023-05-24T00:55:04;9.13;;;3.40;;
55647;SDS011;45266;48.756;9.246;2023-05-24T00:56:07;6.30;;;3.22;;
55647;SDS011;45266;48.756;9.246;2023-05-24T00:57:09;6.15;;;2.90;;
55647;SDS011;45266;48.756;9.246;2023-05-24T00:58:14;5.97;;;2.90;;
55647;SDS011;45266;48.756;9.246;2023-05-24T00:59:16;6.15;;;3.28;;
55647;SDS011;45266;48.756;9.246;2023-05-24T01:00:18;6.18;;;3.03;;
55647;SDS011;45266;48.756;9.246;2023-05-24T01:01:21;8.32;;;3.15;;
55647;SDS011;45266;48.756;9.246;2023-05-24T01:02:26;5.85;;;2.92;;
55647;SDS011;45266;48.756;9.246;2023-05-24T01:03:28;9.63;;;3.67;;
55647;SDS011;45266;48.756;9.246;2023-05-24T01:04:31;7.30;;;3.47;;
55647;SDS011;45266;48.756;9.246;2023-05-24T01:05:33;6.28;;;3.45;;
55647;SDS011;45266;48.756;9.246;2023-05-24T01:06:37;9.23;;;3.03;;
55647;SDS011;45266;48.756;9.246;2023-05-24T01:07:58;5.72;;;3.08;;
55647;SDS011;45266;48.756;9.246;2023-05-24T01:10:58;7.70;;;3.45;;
55647;SDS011;45266;48.756;9.246;2023-05-24T01:13:29;6.53;;;3.40;;
55647;SDS011;45266;48.756;9.246;2023-05-24T01:15:50;13.98;;;3.83;;
55647;SDS011;45266;48.756;9.246;2023-05-24T01:17:20;6.65;;;3.05;;
55647;SDS011;45266;48.756;9.246;2023-05-24T01:18:30;5.38;;;2.95;;
55647;SDS011;45266;48.756;9.246;2023-05-24T01:24:53;5.72;;;3.40;;
55647;SDS011;45266;48.756;9.246;2023-05-24T01:26:12;7.07;;;3.40;;
55647;SDS011;45266;48.756;9.246;2023-05-24T01:27:18;7.95;;;3.20;;
55647;SDS011;45266;48.756;9.246;2023-05-24T01:28:22;4.93;;;3.00;;
55647;SDS011;45266;48.756;9.246;2023-05-24T01:29:25;8.35;;;3.13;;
55647;SDS011;45266;48.756;9.246;2023-05-24T01:30:27;5.97;;;3.75;;
55647;SDS011;45266;48.756;9.246;2023-05-24T01:31:29;5.18;;;3.00;;
55647;SDS011;45266;48.756;9.246;2023-05-24T01:32:31;4.90;;;3.65;;
55647;SDS011;45266;48.756;9.246;2023-05-24T01:33:33;7.68;;;3.22;;
55647;SDS011;45266;48.756;9.246;2023-05-24T01:34:35;7.35;;;3.47;;
55647;SDS011;45266;48.756;9.246;2023-05-24T01:35:37;6.88;;;3.20;;
55647;SDS011;45266;48.756;9.246;2023-05-24T01:36:42;6.43;;;3.60;;
55647;SDS011;45266;48.756;9.246;2023-05-24T01:37:44;6.57;;;3.30;;
55647;SDS011;45266;48.756;9.246;2023-05-24T01:38:46;8.38;;;3.33;;
55647;SDS011;45266;48.756;9.246;2023-05-24T01:39:50;7.45;;;3.13;;
55647;SDS011;45266;48.756;9.246;2023-05-24T01:40:54;6.93;;;3.38;;
55647;SDS011;45266;48.756;9.246;2023-05-24T01:43:26;9.35;;;3.75;;
55647;SDS011;45266;48.756;9.246;2023-05-24T01:44:38;7.30;;;4.00;;
55647;SDS011;45266;48.756;9.246;2023-05-24T01:45:56;7.32;;;3.53;;
55647;SDS011;45266;48.756;9.246;2023-05-24T01:49:53;6.75;;;3.65;;
55647;SDS011;45266;48.756;9.246;2023-05-24T01:51:06;8.80;;;3.38;;
55647;SDS011;45266;48.756;9.246;2023-05-24T01:52:11;7.80;;;3.63;;
55647;SDS011;45266;48.756;9.246;2023-05-24T01:53:17;8.82;;;3.85;;
55647;SDS011;45266;48.756;9.246;2023-05-24T01:54:22;4.22;;;3.22;;
55647;SDS011;45266;48.756;9.246;2023-05-24T01:55:26;8.77;;;3.88;;
55647;SDS011;45266;48.756;9.246;2023-05-24T01:56:30;8.68;;;3.65;;
55647;SDS011;45266;48.756;9.246;2023-05-24T01:57:32;5.32;;;3.33;;
55647;SDS011;45266;48.756;9.246;2023-05-24T01:58:35;7.20;;;3.33;;
55647;SDS011;45266;48.756;9.246;2023-05-24T01:59:41;8.55;;;3.75;;
55647;SDS011;45266;48.756;9.246;2023-05-24T02:00:44;9.18;;;3.70;;
55647;SDS011;45266;48.756;9.246;2023-05-24T02:01:46;9.15;;;3.40;;
55647;SDS011;45266;48.756;9.246;2023-05-24T02:02:49;8.52;;;3.42;;
55647;SDS011;45266;48.756;9.246;2023-05-24T02:03:52;9.45;;;3.50;;
55647;SDS011;45266;48.756;9.246;2023-05-24T02:04:55;5.97;;;3.25;;
55647;SDS011;45266;48.756;9.246;2023-05-24T02:05:57;7.45;;;3.78;;
55647;SDS011;45266;48.756;9.246;2023-05-24T02:06:59;9.93;;;3.67;;
55647;SDS011;45266;48.756;9.246;2023-05-24T02:08:01;7.15;;;3.58;;
55647;SDS011;45266;48.756;9.246;2023-05-24T02:09:03;6.90;;;3.42;;
55647;SDS011;45266;48.756;9.246;2023-05-24T02:10:06;8.55;;;4.18;;
55647;SDS011;45266;48.756;9.246;2023-05-24T02:11:08;7.25;;;3.63;;
55647;SDS011;45266;48.756;9.246;2023-05-24T02:12:10;6.88;;;3.60;;
55647;SDS011;45266;48.756;9.246;2023-05-24T02:13:12;7.70;;;4.13;;
55647;SDS011;45266;48.756;9.246;2023-05-24T02:14:16;7.72;;;3.38;;
55647;SDS011;45266;48.756;9.246;2023-05-24T02:15:20;10.07;;;3.53;;
55647;SDS011;45266;48.756;9.246;2023-05-24T02:16:23;8.68;;;3.70;;
55647;SDS011;45266;48.756;9.246;2023-05-24T02:17:27;9.60;;;3.80;;
55647;SDS011;45266;48.756;9.246;2023-05-24T02:18:29;6.03;;;3.45;;
55647;SDS011;45266;48.756;9.246;2023-05-24T02:19:35;7.05;;;3.70;;
55647;SDS011;45266;48.756;9.246;2023-05-24T02:20:39;9.55;;;3.70;;
55647;SDS011;45266;48.756;9.246;2023-05-24T02:21:42;7.57;;;3.30;;
55647;SDS011;45266;48.756;9.246;2023-05-24T02:22:44;6.68;;;3.38;;
55647;SDS011;45266;48.756;9.246;2023-05-24T02:23:45;8.82;;;3.92;;
55647;SDS011;45266;48.756;9.246;2023-05-24T02:24:47;8.18;;;3.88;;
55647;SDS011;45266;48.756;9.246;2023-05-24T02:25:49;8.30;;;3.70;;
55647;SDS011;45266;48.756;9.246;2023-05-24T02:26:51;8.93;;;3.75;;
55647;SDS011;45266;48.756;9.246;2023-05-24T02:27:55;8.60;;;4.35;;
55647;SDS011;45266;48.756;9.246;2023-05-24T02:29:00;8.30;;;3.78;;
55647;SDS011;45266;48.756;9.246;2023-05-24T02:30:02;7.90;;;4.20;;
55647;SDS011;45266;48.756;9.246;2023-05-24T02:31:05;7.78;;;3.90;;
55647;SDS011;45266;48.756;9.246;2023-05-24T02:32:06;13.00;;;4.82;;
55647;SDS011;45266;48.756;9.246;2023-05-24T02:33:09;10.85;;;4.30;;
55647;SDS011;45266;48.756;9.246;2023-05-24T02:34:12;6.45;;;3.30;;
55647;SDS011;45266;48.756;9.246;2023-05-24T02:35:14;10.95;;;4.22;;
55647;SDS011;45266;48.756;9.246;2023-05-24T02:36:16;5.55;;;3.85;;
55647;SDS011;45266;48.756;9.246;2023-05-24T02:37:18;5.20;;;3.25;;
55647;SDS011;45266;48.756;9.246;2023-05-24T02:38:21;9.43;;;4.28;;
55647;SDS011;45266;48.756;9.246;2023-05-24T02:39:23;7.13;;;3.75;;
55647;SDS011;45266;48.756;9.246;2023-05-24T02:40:25;5.85;;;3.67;;
55647;SDS011;45266;48.756;9.246;2023-05-24T02:41:26;8.82;;;4.22;;
55647;SDS011;45266;48.756;9.246;2023-05-24T02:42:28;8.23;;;4.22;;
55647;SDS011;45266;48.756;9.246;2023-05-24T02:43:30;4.93;;;3.40;;
55647;SDS011;45266;48.756;9.246;2023-05-24T02:44:32;6.43;;;3.38;;
55647;SDS011;45266;48.756;9.246;2023-05-24T02:45:34;7.32;;;3.50;;
55647;SDS011;45266;48.756;9.246;2023-05-24T02:46:36;9.77;;;4.10;;
55647;SDS011;45266;48.756;9.246;2023-05-24T02:47:38;9.38;;;4.60;;
55647;SDS011;45266;48.756;9.246;2023-05-24T02:48:40;8.88;;;3.58;;
55647;SDS011;45266;48.756;9.246;2023-05-24T02:49:42;7.60;;;3.35;;
55647;SDS011;45266;48.756;9.246;2023-05-24T02:50:44;8.35;;;3.97;;
55647;SDS011;45266;48.756;9.246;2023-05-24T02:51:46;7.38;;;3.92;;
55647;SDS011;45266;48.756;9.246;2023-05-24T02:52:48;8.50;;;3.78;;
55647;SDS011;45266;48.756;9.246;2023-05-24T02:53:50;7.57;;;3.90;;
55647;SDS011;45266;48.756;9.246;2023-05-24T02:54:52;10.45;;;4.13;;
55647;SDS011;45266;48.756;9.246;2023-05-24T02:55:54;7.25;;;3.33;;
55647;SDS011;45266;48.756;9.246;2023-05-24T02:56:56;7.10;;;3.65;;
55647;SDS011;45266;48.756;9.246;2023-05-24T02:57:58;8.05;;;3.58;;
55647;SDS011;45266;48.756;9.246;2023-05-24T02:59:00;7.43;;;3.88;;
55647;SDS011;45266;48.756;9.246;2023-05-24T03:00:02;6.70;;;3.75;;
55647;SDS011;45266;48.756;9.246;2023-05-24T03:01:06;7.75;;;3.83;;
55647;SDS011;45266;48.756;9.246;2023-05-24T03:02:08;6.80;;;3.40;;
55647;SDS011;45266;48.756;9.246;2023-05-24T03:03:14;8.07;;;3.80;;
55647;SDS011;45266;48.756;9.246;2023-05-24T03:04:16;11.65;;;4.00;;
55647;SDS011;45266;48.756;9.246;2023-05-24T03:05:18;7.32;;;3.88;;
55647;SDS011;45266;48.756;9.246;2023-05-24T03:06:20;8.23;;;4.43;;
55647;SDS011;45266;48.756;9.246;2023-05-24T03:07:22;8.95;;;3.90;;
55647;SDS011;45266;48.756;9.246;2023-05-24T03:08:24;7.60;;;4.20;;
55647;SDS011;45266;48.756;9.246;2023-05-24T03:09:26;9.73;;;3.90;;
55647;SDS011;45266;48.756;9.246;2023-05-24T03:10:28;9.00;;;3.95;;
55647;SDS011;45266;48.756;9.246;2023-05-24T03:11:30;7.90;;;4.00;;
55647;SDS011;45266;48.756;9.246;2023-05-24T03:12:32;8.07;;;4.32;;
55647;SDS011;45266;48.756;9.246;2023-05-24T03:13:34;12.27;;;4.25;;
55647;SDS011;45266;48.756;9.246;2023-05-24T03:14:36;7.65;;;4.05;;
55647;SDS011;45266;48.756;9.246;2023-05-24T03:15:38;7.22;;;4.15;;
55647;SDS011;45266;48.756;9.246;2023-05-24T03:16:40;11.32;;;4.18;;
55647;SDS011;45266;48.756;9.246;2023-05-24T03:17:42;8.13;;;4.10;;
55647;SDS011;45266;48.756;9.246;2023-05-24T03:18:44;10.20;;;4.07;;
55647;SDS011;45266;48.756;9.246;2023-05-24T03:19:46;7.57;;;3.90;;
55647;SDS011;45266;48.756;9.246;2023-05-24T03:20:48;9.43;;;4.40;;
55647;SDS011;45266;48.756;9.246;2023-05-24T03:21:49;5.95;;;3.50;;
55647;SDS011;45266;48.756;9.246;2023-05-24T03:22:52;7.95;;;3.88;;
55647;SDS011;45266;48.756;9.246;2023-05-24T03:23:54;7.10;;;3.30;;
55647;SDS011;45266;48.756;9.246;2023-05-24T03:24:56;8.25;;;4.10;;
55647;SDS011;45266;48.756;9.246;2023-05-24T03:25:58;8.50;;;4.03;;
55647;SDS011;45266;48.756;9.246;2023-05-24T03:27:00;9.88;;;4.05;;
55647;SDS011;45266;48.756;9.246;2023-05-24T03:28:03;9.60;;;4.05;;
55647;SDS011;45266;48.756;9.246;2023-05-24T03:29:04;8.55;;;3.80;;
55647;SDS011;45266;48.756;9.246;2023-05-24T03:30:07;7.05;;;3.70;;
55647;SDS011;45266;48.756;9.246;2023-05-24T03:31:09;7.10;;;3.90;;
55647;SDS011;45266;48.756;9.246;2023-05-24T03:32:12;8.18;;;4.20;;
55647;SDS011;45266;48.756;9.246;2023-05-24T03:33:14;8.95;;;4.35;;
55647;SDS011;45266;48.756;9.246;2023-05-24T03:34:16;9.38;;;4.40;;
55647;SDS011;45266;48.756;9.246;2023-05-24T03:35:18;9.82;;;4.50;;
55647;SDS011;45266;48.756;9.246;2023-05-24T03:36:20;9.43;;;4.00;;
55647;SDS011;45266;48.756;9.246;2023-05-24T03:37:22;8.40;;;4.15;;
55647;SDS011;45266;48.756;9.246;2023-05-24T03:38:24;9.02;;;4.50;;
55647;SDS011;45266;48.756;9.246;2023-05-24T03:39:26;8.40;;;3.90;;
55647;SDS011;45266;48.756;9.246;2023-05-24T03:40:28;7.97;;;4.30;;
55647;SDS011;45266;48.756;9.246;2023-05-24T03:41:34;10.68;;;4.07;;
55647;SDS011;45266;48.756;9.246;2023-05-24T03:42:35;10.65;;;4.50;;
55647;SDS011;45266;48.756;9.246;2023-05-24T03:43:38;7.55;;;3.67;;
55647;SDS011;45266;48.756;9.246;2023-05-24T03:44:39;6.75;;;4.40;;
55647;SDS011;45266;48.756;9.246;2023-05-24T03:45:41;9.32;;;3.85;;
55647;SDS011;45266;48.756;9.246;2023-05-24T03:46:43;6.55;;;4.22;;
55647;SDS011;45266;48.756;9.246;2023-05-24T03:47:45;9.90;;;3.80;;
55647;SDS011;45266;48.756;9.246;2023-05-24T03:48:47;10.35;;;4.38;;
55647;SDS011;45266;48.756;9.246;2023-05-24T03:49:49;8.50;;;3.88;;
55647;SDS011;45266;48.756;9.246;2023-05-24T03:50:51;8.05;;;3.97;;
55647;SDS011;45266;48.756;9.246;2023-05-24T03:51:53;8.13;;;4.80;;
55647;SDS011;45266;48.756;9.246;2023-05-24T03:52:55;10.80;;;4.32;;
55647;SDS011;45266;48.756;9.246;2023-05-24T03:53:57;6.57;;;3.97;;
55647;SDS011;45266;48.756;9.246;2023-05-24T03:54:59;8.57;;;4.15;;
55647;SDS011;45266;48.756;9.246;2023-05-24T03:56:01;7.57;;;4.60;;
55647;SDS011;45266;48.756;9.246;2023-05-24T03:57:03;7.65;;;4.50;;
55647;SDS011;45266;48.756;9.246;2023-05-24T03:58:05;6.60;;;4.18;;
55647;SDS011;45266;48.756;9.246;2023-05-24T03:59:07;8.07;;;3.85;;
55647;SDS011;45266;48.756;9.246;2023-05-24T04:00:09;10.55;;;4.38;;
55647;SDS011;45266;48.756;9.246;2023-05-24T04:01:12;6.65;;;4.18;;
55647;SDS011;45266;48.756;9.246;2023-05-24T04:02:32;10.18;;;4.22;;
55647;SDS011;45266;48.756;9.246;2023-05-24T04:03:34;7.50;;;4.18;;
55647;SDS011;45266;48.756;9.246;2023-05-24T04:04:36;9.40;;;4.15;;
55647;SDS011;45266;48.756;9.246;2023-05-24T04:05:38;8.77;;;4.43;;
55647;SDS011;45266;48.756;9.246;2023-05-24T04:06:40;9.07;;;4.57;;
55647;SDS011;45266;48.756;9.246;2023-05-24T04:07:42;10.45;;;4.47;;
55647;SDS011;45266;48.756;9.246;2023-05-24T04:08:45;8.88;;;3.83;;
55647;SDS011;45266;48.756;9.246;2023-05-24T04:09:48;9.70;;;4.32;;
55647;SDS011;45266;48.756;9.246;2023-05-24T04:10:50;10.20;;;4.53;;
55647;SDS011;45266;48.756;9.246;2023-05-24T04:11:52;10.57;;;4.00;;
55647;SDS011;45266;48.756;9.246;2023-05-24T04:12:54;8.88;;;4.13;;
55647;SDS011;45266;48.756;9.246;2023-05-24T04:13:57;6.93;;;4.13;;
55647;SDS011;45266;48.756;9.246;2023-05-24T04:15:02;7.13;;;4.38;;
55647;SDS011;45266;48.756;9.246;2023-05-24T04:16:05;9.50;;;4.93;;
55647;SDS011;45266;48.756;9.246;2023-05-24T04:17:09;8.18;;;4.50;;
55647;SDS011;45266;48.756;9.246;2023-05-24T04:18:12;9.88;;;4.70;;
55647;SDS011;45266;48.756;9.246;2023-05-24T04:19:14;9.90;;;4.40;;
55647;SDS011;45266;48.756;9.246;2023-05-24T04:20:16;7.32;;;4.57;;
55647;SDS011;45266;48.756;9.246;2023-05-24T04:21:19;7.60;;;4.38;;
55647;SDS011;45266;48.756;9.246;2023-05-24T04:22:20;9.32;;;4.53;;
55647;SDS011;45266;48.756;9.246;2023-05-24T04:23:25;7.88;;;4.47;;
55647;SDS011;45266;48.756;9.246;2023-05-24T04:24:27;8.57;;;4.25;;
55647;SDS011;45266;48.756;9.246;2023-05-24T04:25:29;7.32;;;4.10;;
55647;SDS011;45266;48.756;9.246;2023-05-24T04:26:33;7.45;;;4.22;;
55647;SDS011;45266;48.756;9.246;2023-05-24T04:27:35;10.45;;;4.25;;
55647;SDS011;45266;48.756;9.246;2023-05-24T04:28:38;10.52;;;4.60;;
55647;SDS011;45266;48.756;9.246;2023-05-24T04:29:40;6.80;;;4.25;;
55647;SDS011;45266;48.756;9.246;2023-05-24T04:30:45;10.85;;;4.22;;
55647;SDS011;45266;48.756;9.246;2023-05-24T04:31:47;6.85;;;4.13;;
55647;SDS011;45266;48.756;9.246;2023-05-24T04:32:50;11.02;;;4.63;;
55647;SDS011;45266;48.756;9.246;2023-05-24T04:33:52;9.20;;;4.35;;
55647;SDS011;45266;48.756;9.246;2023-05-24T04:34:54;9.48;;;4.22;;
55647;SDS011;45266;48.756;9.246;2023-05-24T04:35:56;8.77;;;3.97;;
55647;SDS011;45266;48.756;9.246;2023-05-24T04:37:01;12.07;;;4.40;;
55647;SDS011;45266;48.756;9.246;2023-05-24T04:38:03;10.60;;;4.40;;
55647;SDS011;45266;48.756;9.246;2023-05-24T04:39:05;7.70;;;4.47;;
55647;SDS011;45266;48.756;9.246;2023-05-24T04:40:07;10.48;;;4.47;;
55647;SDS011;45266;48.756;9.246;2023-05-24T04:41:10;10.82;;;5.07;;
55647;SDS011;45266;48.756;9.246;2023-05-24T04:42:14;9.25;;;4.55;;
55647;SDS011;45266;48.756;9.246;2023-05-24T04:43:16;7.68;;;4.50;;
55647;SDS011;45266;48.756;9.246;2023-05-24T04:44:18;9.00;;;4.10;;
55647;SDS011;45266;48.756;9.246;2023-05-24T04:45:20;8.40;;;4.18;;
55647;SDS011;45266;48.756;9.246;2023-05-24T04:46:22;10.27;;;4.53;;
55647;SDS011;45266;48.756;9.246;2023-05-24T04:47:24;10.88;;;4.47;;
55647;SDS011;45266;48.756;9.246;2023-05-24T04:48:26;8.65;;;4.18;;
55647;SDS011;45266;48.756;9.246;2023-05-24T04:49:28;7.57;;;4.40;;
55647;SDS011;45266;48.756;9.246;2023-05-24T04:50:30;8.07;;;4.70;;
55647;SDS011;45266;48.756;9.246;2023-05-24T04:51:32;12.80;;;4.57;;
55647;SDS011;45266;48.756;9.246;2023-05-24T04:52:35;8.05;;;4.28;;
55647;SDS011;45266;48.756;9.246;2023-05-24T04:53:37;10.63;;;4.38;;
55647;SDS011;45266;48.756;9.246;2023-05-24T04:54:39;7.80;;;4.22;;
55647;SDS011;45266;48.756;9.246;2023-05-24T04:55:41;7.82;;;4.18;;
55647;SDS011;45266;48.756;9.246;2023-05-24T04:56:43;7.50;;;4.10;;
55647;SDS011;45266;48.756;9.246;2023-05-24T04:57:45;10.82;;;4.55;;
55647;SDS011;45266;48.756;9.246;2023-05-24T04:58:47;8.15;;;4.05;;
55647;SDS011;45266;48.756;9.246;2023-05-24T04:59:49;9.52;;;4.25;;
55647;SDS011;45266;48.756;9.246;2023-05-24T05:00:51;8.98;;;4.50;;
55647;SDS011;45266;48.756;9.246;2023-05-24T05:01:53;12.52;;;4.97;;
55647;SDS011;45266;48.756;9.246;2023-05-24T05:02:56;9.65;;;4.88;;
55647;SDS011;45266;48.756;9.246;2023-05-24T05:03:58;7.57;;;4.38;;
55647;SDS011;45266;48.756;9.246;2023-05-24T05:05:00;11.68;;;4.70;;
55647;SDS011;45266;48.756;9.246;2023-05-24T05:06:02;8.45;;;4.60;;
55647;SDS011;45266;48.756;9.246;2023-05-24T05:07:04;10.18;;;4.90;;
55647;SDS011;45266;48.756;9.246;2023-05-24T05:08:06;10.32;;;4.78;;
55647;SDS011;45266;48.756;9.246;2023-05-24T05:09:10;12.43;;;4.72;;
55647;SDS011;45266;48.756;9.246;2023-05-24T05:10:15;11.40;;;4.82;;
55647;SDS011;45266;48.756;9.246;2023-05-24T05:11:17;10.80;;;4.28;;
55647;SDS011;45266;48.756;9.246;2023-05-24T05:12:19;11.90;;;4.45;;
55647;SDS011;45266;48.756;9.246;2023-05-24T05:13:21;11.45;;;4.50;;
55647;SDS011;45266;48.756;9.246;2023-05-24T05:14:23;10.18;;;4.75;;
55647;SDS011;45266;48.756;9.246;2023-05-24T05:15:25;8.35;;;4.03;;
55647;SDS011;45266;48.756;9.246;2023-05-24T05:16:27;8.73;;;4.32;;
55647;SDS011;45266;48.756;9.246;2023-05-24T05:17:28;12.23;;;4.22;;
55647;SDS011;45266;48.756;9.246;2023-05-24T05:18:31;7.95;;;4.88;;
55647;SDS011;45266;48.756;9.246;2023-05-24T05:19:34;10.05;;;4.50;;
55647;SDS011;45266;48.756;9.246;2023-05-24T05:20:36;10.32;;;5.03;;
55647;SDS011;45266;48.756;9.246;2023-05-24T05:21:38;9.50;;;4.65;;
55647;SDS011;45266;48.756;9.246;2023-05-24T05:22:46;8.75;;;4.18;;
55647;SDS011;45266;48.756;9.246;2023-05-24T05:23:48;10.18;;;4.20;;
55647;SDS011;45266;48.756;9.246;2023-05-24T05:24:50;7.20;;;4.13;;
55647;SDS011;45266;48.756;9.246;2023-05-24T05:25:52;12.50;;;4.57;;
55647;SDS011;45266;48.756;9.246;2023-05-24T05:26:54;10.02;;;4.78;;
55647;SDS011;45266;48.756;9.246;2023-05-24T05:27:56;13.00;;;4.85;;
55647;SDS011;45266;48.756;9.246;2023-05-24T05:28:59;12.63;;;5.60;;
55647;SDS011;45266;48.756;9.246;2023-05-24T05:30:01;12.27;;;5.18;;
55647;SDS011;45266;48.756;9.246;2023-05-24T05:31:03;8.93;;;4.57;;
55647;SDS011;45266;48.756;9.246;2023-05-24T05:32:05;11.45;;;4.70;;
55647;SDS011;45266;48.756;9.246;2023-05-24T05:33:07;9.60;;;4.25;;
55647;SDS011;45266;48.756;9.246;2023-05-24T05:34:09;11.77;;;4.78;;
55647;SDS011;45266;48.756;9.246;2023-05-24T05:35:11;8.75;;;4.95;;
55647;SDS011;45266;48.756;9.246;2023-05-24T05:36:13;8.45;;;5.00;;
55647;SDS011;45266;48.756;9.246;2023-05-24T05:37:15;9.82;;;4.97;;
55647;SDS011;45266;48.756;9.246;2023-05-24T05:38:17;7.30;;;4.78;;
55647;SDS011;45266;48.756;9.246;2023-05-24T05:39:19;9.25;;;4.85;;
55647;SDS011;45266;48.756;9.246;2023-05-24T05:40:21;9.73;;;4.78;;
55647;SDS011;45266;48.756;9.246;2023-05-24T05:41:23;10.02;;;4.55;;
55647;SDS011;45266;48.756;9.246;2023-05-24T05:42:25;8.57;;;4.55;;
55647;SDS011;45266;48.756;9.246;2023-05-24T05:43:27;11.02;;;4.70;;
55647;SDS011;45266;48.756;9.246;2023-05-24T05:44:29;9.68;;;4.78;;
55647;SDS011;45266;48.756;9.246;2023-05-24T05:45:31;11.70;;;5.15;;
55647;SDS011;45266;48.756;9.246;2023-05-24T05:46:33;9.73;;;5.13;;
55647;SDS011;45266;48.756;9.246;2023-05-24T05:47:35;6.97;;;4.50;;
55647;SDS011;45266;48.756;9.246;2023-05-24T05:48:37;10.45;;;4.47;;
55647;SDS011;45266;48.756;9.246;2023-05-24T05:49:38;12.80;;;4.40;;
55647;SDS011;45266;48.756;9.246;2023-05-24T05:50:40;7.93;;;4.68;;
55647;SDS011;45266;48.756;9.246;2023-05-24T05:51:43;9.80;;;4.40;;
55647;SDS011;45266;48.756;9.246;2023-05-24T05:52:46;12.23;;;5.15;;
55647;SDS011;45266;48.756;9.246;2023-05-24T05:53:48;8.52;;;4.88;;
55647;SDS011;45266;48.756;9.246;2023-05-24T05:54:50;12.23;;;4.55;;
55647;SDS011;45266;48.756;9.246;2023-05-24T05:55:51;9.00;;;4.60;;
55647;SDS011;45266;48.756;9.246;2023-05-24T05:56:53;9.15;;;4.32;;
55647;SDS011;45266;48.756;9.246;2023-05-24T05:57:56;11.23;;;4.50;;
55647;SDS011;45266;48.756;9.246;2023-05-24T05:58:58;11.02;;;4.75;;
55647;SDS011;45266;48.756;9.246;2023-05-24T05:59:59;13.95;;;5.18;;
55647;SDS011;45266;48.756;9.246;2023-05-24T06:01:02;11.50;;;4.70;;
55647;SDS011;45266;48.756;9.246;2023-05-24T06:02:04;10.80;;;5.28;;
55647;SDS011;45266;48.756;9.246;2023-05-24T06:03:07;8.02;;;4.65;;
55647;SDS011;45266;48.756;9.246;2023-05-24T06:04:09;10.65;;;4.53;;
55647;SDS011;45266;48.756;9.246;2023-05-24T06:05:11;9.85;;;4.88;;
55647;SDS011;45266;48.756;9.246;2023-05-24T06:06:16;10.98;;;4.90;;
55647;SDS011;45266;48.756;9.246;2023-05-24T06:07:18;8.65;;;4.50;;
55647;SDS011;45266;48.756;9.246;2023-05-24T06:08:20;10.27;;;4.03;;
55647;SDS011;45266;48.756;9.246;2023-05-24T06:09:22;13.95;;;4.88;;
55647;SDS011;45266;48.756;9.246;2023-05-24T06:10:24;14.20;;;4.85;;
55647;SDS011;45266;48.756;9.246;2023-05-24T06:11:25;16.30;;;5.10;;
55647;SDS011;45266;48.756;9.246;2023-05-24T06:12:27;10.15;;;4.70;;
55647;SDS011;45266;48.756;9.246;2023-05-24T06:13:29;8.75;;;4.32;;
55647;SDS011;45266;48.756;9.246;2023-05-24T06:14:33;10.35;;;4.53;;
55647;SDS011;45266;48.756;9.246;2023-05-24T06:15:38;10.40;;;4.70;;
55647;SDS011;45266;48.756;9.246;2023-05-24T06:16:40;9.98;;;4.32;;
55647;SDS011;45266;48.756;9.246;2023-05-24T06:17:43;9.00;;;4.15;;
55647;SDS011;45266;48.756;9.246;2023-05-24T06:18:48;9.95;;;4.47;;
55647;SDS011;45266;48.756;9.246;2023-05-24T06:20:05;13.18;;;4.72;;
55647;SDS011;45266;48.756;9.246;2023-05-24T06:21:10;9.13;;;4.85;;
55647;SDS011;45266;48.756;9.246;2023-05-24T06:22:11;11.48;;;5.07;;
55647;SDS011;45266;48.756;9.246;2023-05-24T06:23:13;9.50;;;4.68;;
55647;SDS011;45266;48.756;9.246;2023-05-24T06:24:16;8.40;;;4.70;;
55647;SDS011;45266;48.756;9.246;2023-05-24T06:25:21;8.98;;;4.20;;
55647;SDS011;45266;48.756;9.246;2023-05-24T06:26:24;7.82;;;4.10;;
55647;SDS011;45266;48.756;9.246;2023-05-24T06:27:27;6.78;;;4.05;;
55647;SDS011;45266;48.756;9.246;2023-05-24T06:28:29;9.05;;;4.65;;
55647;SDS011;45266;48.756;9.246;2023-05-24T06:29:31;9.95;;;4.45;;
55647;SDS011;45266;48.756;9.246;2023-05-24T06:30:33;8.88;;;4.60;;
55647;SDS011;45266;48.756;9.246;2023-05-24T06:31:35;10.40;;;5.18;;
55647;SDS011;45266;48.756;9.246;2023-05-24T06:32:37;10.45;;;4.45;;